Maryville, Tennessee
Current Conditions -  °F | °C
As of 2:53 AM on Monday 24 Nov 2014 (Local Time) from KTYS Reporting Station
Scattered Clouds Scattered Clouds  
Wind Chill: 62°   Ceiling: Unl
Heat Index: 62°   Visibility: 10mi
Dew Point: 53°   Wind: 25mph
Humidity: 72%   Direction: 210°SSW
Pressure: 29.62"   Gusts: 33mph
Location:  35.75°N, 83.97°W
Report Text: KTYS 240753Z 21022G29KT 10SM SCT045 17/12 A2962 RMK AO2 PK WND 22029/0746 SLP024 T01670117
Loading
Personal Weather Stations






























Interactive Weather Map New forecast layout! Learn more

10-Day Weather Forecast

Advertisements
Track Severe Weather on mobile